Time;durP1;ratioP1;P1;durP2;ratioP2;P2;SDS_P1;SDS_P2;PMS_P1;PMS_P2;Temp;Humidity;BMP_temperature;BMP_pressure;BME280_temperature;BME280_humidity;BME280_pressure;Samples;Min_cycle;Max_cycle;Signal;HPM_P1;HPM_P2
2022/01/19 00:01:25;;;;;;;39.17;18.40;;;5.40;99.90;;;;;;6213628;23;20273;-92
2022/01/19 00:03:53;;;;;;;41.10;20.17;;;5.40;99.90;;;;;;6214526;23;20798;-94
2022/01/19 00:06:21;;;;;;;50.77;21.77;;;5.40;99.90;;;;;;6214378;23;20181;-93
2022/01/19 00:08:47;;;;;;;56.37;21.43;;;5.40;99.90;;;;;;6214254;23;20244;-94
2022/01/19 00:11:16;;;;;;;62.37;22.03;;;5.30;99.90;;;;;;6214817;23;20198;-93
2022/01/19 00:13:43;;;;;;;52.33;20.33;;;5.30;99.90;;;;;;6213998;23;20170;-94
2022/01/19 00:16:10;;;;;;;49.70;18.47;;;5.30;99.90;;;;;;6214951;23;20197;-92
2022/01/19 00:18:37;;;;;;;42.57;18.13;;;5.20;99.90;;;;;;6214797;23;20200;-92
2022/01/19 00:21:06;;;;;;;40.27;18.43;;;5.20;99.90;;;;;;6213906;23;20194;-92
2022/01/19 00:23:33;;;;;;;39.17;18.83;;;5.20;99.90;;;;;;6214311;23;20195;-93
2022/01/19 00:25:59;;;;;;;65.53;18.93;;;5.10;99.90;;;;;;6216129;23;20185;-87
2022/01/19 00:28:27;;;;;;;48.83;17.87;;;5.10;99.90;;;;;;6214273;23;20174;-93
2022/01/19 00:30:54;;;;;;;97.17;18.87;;;5.00;99.90;;;;;;6213931;23;20705;-92
2022/01/19 00:33:21;;;;;;;31.70;14.37;;;5.00;99.90;;;;;;6211094;23;20219;-90
2022/01/19 00:35:49;;;;;;;60.27;17.30;;;5.00;99.90;;;;;;6210775;23;20189;-93
2022/01/19 00:38:17;;;;;;;43.17;17.13;;;4.90;99.90;;;;;;6214084;23;20181;-92
2022/01/19 00:40:45;;;;;;;109.43;20.20;;;5.00;99.90;;;;;;6214363;23;20200;-93
2022/01/19 00:43:13;;;;;;;39.40;16.43;;;4.90;99.90;;;;;;6214082;23;20567;-92
2022/01/19 00:45:40;;;;;;;44.20;17.03;;;4.90;99.90;;;;;;6214149;23;20181;-92
2022/01/19 00:48:07;;;;;;;33.00;16.00;;;4.90;99.90;;;;;;6214409;23;20168;-92
2022/01/19 00:50:34;;;;;;;39.93;16.63;;;4.90;99.90;;;;;;6213454;23;20182;-90
2022/01/19 00:53:01;;;;;;;79.17;21.63;;;4.90;99.90;;;;;;6214233;23;20184;-92
2022/01/19 00:55:29;;;;;;;51.07;19.97;;;4.90;99.90;;;;;;6214184;23;20206;-93
2022/01/19 00:57:56;;;;;;;51.67;20.27;;;4.90;99.90;;;;;;6214516;23;20169;-93
2022/01/19 01:00:27;;;;;;;62.77;20.17;;;4.90;99.90;;;;;;6216712;23;20234;-91
2022/01/19 01:02:54;;;;;;;49.10;19.40;;;4.90;99.90;;;;;;6215087;23;20598;-91
2022/01/19 01:05:22;;;;;;;49.23;19.47;;;4.90;99.90;;;;;;6213802;23;20176;-89
2022/01/19 01:07:49;;;;;;;42.87;18.20;;;4.80;99.90;;;;;;6215077;23;20232;-92
2022/01/19 01:10:17;;;;;;;65.07;20.70;;;4.80;99.90;;;;;;6221207;23;20177;-91
2022/01/19 01:12:48;;;;;;;73.03;23.47;;;4.80;99.90;;;;;;6220902;23;20179;-89
2022/01/19 01:15:28;;;;;;;66.43;22.03;;;4.80;99.90;;;;;;6214204;23;20190;-92
2022/01/19 01:20:40;;;;;;;45.67;21.30;;;4.70;99.90;;;;;;6213396;23;20217;-91
2022/01/19 01:23:10;;;;;;;55.43;22.20;;;4.70;99.90;;;;;;6213389;23;20490;-90
2022/01/19 01:25:37;;;;;;;57.53;21.33;;;4.70;99.90;;;;;;6213100;23;20221;-93
2022/01/19 01:28:07;;;;;;;61.27;21.80;;;4.60;99.90;;;;;;6213602;23;20492;-92
2022/01/19 01:30:35;;;;;;;57.93;21.13;;;4.60;99.90;;;;;;6213397;23;20209;-93
2022/01/19 01:33:02;;;;;;;49.60;20.80;;;4.60;99.90;;;;;;6213185;23;20174;-90
2022/01/19 01:35:29;;;;;;;40.50;18.53;;;4.60;99.90;;;;;;6212472;23;20170;-93
2022/01/19 01:37:55;;;;;;;53.30;21.23;;;4.50;99.90;;;;;;6213464;23;20249;-90
2022/01/19 01:40:25;;;;;;;54.27;22.40;;;4.50;99.90;;;;;;6213258;23;20166;-91
2022/01/19 01:42:53;;;;;;;59.53;23.77;;;4.50;99.90;;;;;;6213483;23;20297;-92
2022/01/19 01:45:27;;;;;;;52.53;21.10;;;4.50;99.90;;;;;;6213461;23;20177;-92
2022/01/19 01:48:03;;;;;;;55.43;21.43;;;4.50;99.90;;;;;;6213003;23;20166;-92
2022/01/19 01:53:27;;;;;;;50.87;21.87;;;4.50;99.90;;;;;;6213544;23;20440;-91
2022/01/19 01:55:56;;;;;;;58.67;22.87;;;4.40;99.90;;;;;;6212891;23;20201;-92
2022/01/19 01:58:23;;;;;;;50.07;20.37;;;4.40;99.90;;;;;;6213109;23;20170;-93
2022/01/19 02:00:51;;;;;;;64.80;22.97;;;4.30;99.90;;;;;;6212859;23;20194;-92
2022/01/19 02:03:18;;;;;;;59.47;22.63;;;4.30;99.90;;;;;;6213141;23;20173;-92
2022/01/19 02:06:04;;;;;;;67.97;24.30;;;4.20;99.90;;;;;;6209107;23;20426;-93
2022/01/19 02:08:38;;;;;;;58.90;21.73;;;4.20;99.90;;;;;;6209361;23;20173;-91
2022/01/19 02:11:29;;;;;;;52.33;20.60;;;4.20;99.90;;;;;;6212804;23;20170;-92
2022/01/19 02:16:46;;;;;;;48.67;20.03;;;4.20;99.90;;;;;;6179832;23;20249;-94
2022/01/19 02:22:01;;;;;;;68.50;25.23;;;4.20;99.90;;;;;;6213372;23;20197;-91
2022/01/19 02:24:32;;;;;;;53.40;22.73;;;4.20;99.90;;;;;;6213016;23;20197;-91
2022/01/19 02:27:07;;;;;;;58.80;23.90;;;4.20;99.90;;;;;;6214341;23;20228;-91
2022/01/19 02:40:36;;;;;;;55.17;23.23;;;4.00;99.90;;;;;;6216238;23;20170;-90
2022/01/19 02:43:21;;;;;;;57.33;23.13;;;4.00;99.90;;;;;;6212848;23;20194;-91
2022/01/19 02:51:18;;;;;;;46.67;23.47;;;3.90;99.90;;;;;;6216036;23;20220;-92
2022/01/19 02:53:46;;;;;;;53.73;23.80;;;3.90;99.90;;;;;;6214950;23;20178;-91
2022/01/19 02:56:20;;;;;;;55.17;24.00;;;3.90;99.90;;;;;;6214421;23;20212;-90
2022/01/19 02:58:50;;;;;;;56.00;26.63;;;3.90;99.90;;;;;;6215099;23;20166;-92
2022/01/19 03:09:31;;;;;;;56.20;22.03;;;3.80;99.90;;;;;;6214965;23;20173;-91
2022/01/19 03:11:58;;;;;;;49.80;23.67;;;3.80;99.90;;;;;;6214021;23;20476;-88
2022/01/19 03:14:25;;;;;;;47.70;21.73;;;3.80;99.90;;;;;;6214085;23;20185;-92
2022/01/19 03:16:51;;;;;;;48.53;21.20;;;3.80;99.90;;;;;;6214509;23;20181;-91
2022/01/19 03:19:18;;;;;;;35.43;19.43;;;3.70;99.90;;;;;;6213847;23;20183;-91
2022/01/19 03:21:45;;;;;;;35.83;18.30;;;3.70;99.90;;;;;;6214270;23;20194;-90
2022/01/19 03:24:12;;;;;;;34.70;17.97;;;3.70;99.90;;;;;;6213602;23;20181;-91
2022/01/19 03:26:41;;;;;;;43.27;20.73;;;3.70;99.90;;;;;;6213669;23;20809;-92
2022/01/19 03:29:08;;;;;;;50.93;22.63;;;3.60;99.90;;;;;;6214703;23;20177;-89
2022/01/19 03:31:35;;;;;;;45.33;21.50;;;3.60;99.90;;;;;;6213108;23;20182;-90
2022/01/19 03:34:01;;;;;;;42.00;21.83;;;3.70;99.90;;;;;;6214258;23;20181;-90
2022/01/19 03:36:29;;;;;;;51.57;24.37;;;3.70;99.90;;;;;;6213768;23;20193;-89
2022/01/19 03:38:56;;;;;;;52.73;24.70;;;3.70;99.90;;;;;;6209616;23;20185;-91
2022/01/19 03:41:23;;;;;;;51.27;23.20;;;3.80;99.90;;;;;;6211681;23;20198;-90
2022/01/19 03:43:51;;;;;;;50.03;24.57;;;3.80;99.90;;;;;;6213693;23;20587;-92
2022/01/19 03:46:21;;;;;;;54.13;25.10;;;3.90;99.90;;;;;;6213717;23;20174;-91
2022/01/19 03:48:54;;;;;;;60.80;26.60;;;3.90;99.90;;;;;;6213877;23;20174;-90
2022/01/19 03:51:21;;;;;;;56.33;24.83;;;4.00;99.90;;;;;;6213622;23;20198;-90
2022/01/19 03:53:48;;;;;;;59.97;25.70;;;4.00;99.90;;;;;;6213698;23;20177;-91
2022/01/19 03:56:16;;;;;;;60.57;27.23;;;4.10;99.90;;;;;;6184007;23;20186;-90
2022/01/19 03:58:43;;;;;;;61.40;25.33;;;4.10;99.90;;;;;;6183637;23;20175;-90
2022/01/19 04:01:11;;;;;;;62.30;26.10;;;4.10;99.90;;;;;;6183305;23;20171;-89
2022/01/19 04:04:01;;;;;;;50.73;24.70;;;4.20;99.90;;;;;;6184498;23;20173;-90
2022/01/19 04:06:40;;;;;;;48.40;24.17;;;4.20;99.90;;;;;;6184179;23;20229;-88
2022/01/19 04:09:07;;;;;;;60.07;25.80;;;4.20;99.90;;;;;;6184143;23;20167;-89
2022/01/19 04:11:34;;;;;;;51.63;24.23;;;4.30;99.90;;;;;;6184023;23;20198;-89
2022/01/19 04:16:42;;;;;;;51.73;24.50;;;4.30;99.90;;;;;;6182054;23;20841;-91
2022/01/19 04:19:21;;;;;;;50.80;23.97;;;4.30;99.90;;;;;;6184039;23;20192;-90
2022/01/19 04:21:50;;;;;;;49.90;24.33;;;4.30;99.90;;;;;;6183799;23;20190;-91
2022/01/19 04:24:17;;;;;;;42.43;23.47;;;4.40;99.90;;;;;;6183235;23;20179;-91
2022/01/19 04:26:46;;;;;;;51.33;23.63;;;4.40;99.90;;;;;;6183689;23;20171;-92
2022/01/19 04:29:13;;;;;;;46.40;22.53;;;4.40;99.90;;;;;;6183220;23;20175;-91
2022/01/19 04:31:40;;;;;;;45.70;24.60;;;4.40;99.90;;;;;;6183235;23;20217;-92
2022/01/19 04:34:12;;;;;;;47.07;25.37;;;4.50;99.90;;;;;;6182533;23;20479;-88
2022/01/19 04:37:09;;;;;;;50.40;23.63;;;4.50;99.90;;;;;;6183001;23;20167;-91
2022/01/19 04:45:37;;;;;;;46.23;24.20;;;4.70;99.90;;;;;;6125817;23;20291;-89
2022/01/19 04:48:17;;;;;;;49.83;25.30;;;4.70;99.90;;;;;;6181769;23;20259;-86
2022/01/19 05:01:49;;;;;;;55.63;24.47;;;4.80;99.90;;;;;;6182030;23;20225;-87
2022/01/19 05:04:29;;;;;;;52.67;25.03;;;4.80;99.90;;;;;;6181937;23;20265;-90
2022/01/19 05:07:09;;;;;;;51.77;24.13;;;4.90;99.90;;;;;;6183325;23;20171;-85
2022/01/19 05:10:02;;;;;;;47.80;24.57;;;4.90;99.90;;;;;;6182040;23;20226;-87
2022/01/19 05:15:14;;;;;;;52.67;26.43;;;4.90;99.90;;;;;;6160631;23;20202;-92
2022/01/19 05:17:41;;;;;;;67.80;27.87;;;5.00;99.90;;;;;;6182066;23;20685;-91
2022/01/19 05:20:10;;;;;;;58.13;27.10;;;5.00;99.90;;;;;;6183692;23;20171;-92
2022/01/19 05:22:39;;;;;;;44.93;23.33;;;5.10;99.90;;;;;;6182538;23;20666;-90
2022/01/19 05:25:06;;;;;;;48.60;24.03;;;5.10;99.90;;;;;;6183694;23;20478;-90
2022/01/19 05:27:33;;;;;;;44.27;24.77;;;5.10;99.90;;;;;;6183883;23;20193;-90
2022/01/19 05:30:00;;;;;;;52.00;24.03;;;5.10;99.90;;;;;;6184795;23;20175;-92
2022/01/19 05:32:27;;;;;;;48.33;24.37;;;5.10;99.90;;;;;;6189225;23;20171;-89
2022/01/19 05:34:53;;;;;;;47.97;25.13;;;5.10;99.90;;;;;;6196083;23;20181;-90
2022/01/19 05:37:21;;;;;;;50.17;24.93;;;5.20;99.90;;;;;;6188383;23;20568;-93
2022/01/19 05:39:49;;;;;;;51.00;24.47;;;5.20;99.90;;;;;;6183228;23;20166;-92
2022/01/19 05:42:16;;;;;;;45.47;23.23;;;5.20;99.90;;;;;;6182923;23;20190;-92
2022/01/19 05:44:44;;;;;;;49.10;24.33;;;5.30;99.90;;;;;;6182546;23;20185;-92
2022/01/19 05:47:11;;;;;;;56.17;25.23;;;5.30;99.90;;;;;;6183394;23;20194;-93
2022/01/19 05:49:38;;;;;;;48.47;25.07;;;5.30;99.90;;;;;;6183156;23;20170;-94
2022/01/19 05:52:06;;;;;;;44.20;23.03;;;5.30;99.90;;;;;;6183088;23;20256;-92
2022/01/19 05:54:34;;;;;;;53.00;24.00;;;5.30;99.90;;;;;;6191005;23;20213;-92
2022/01/19 05:57:03;;;;;;;48.90;24.00;;;5.40;99.90;;;;;;6213800;23;20158;-91
2022/01/19 05:59:30;;;;;;;50.40;26.37;;;5.40;99.90;;;;;;6213938;23;20166;-92
2022/01/19 06:01:56;;;;;;;48.50;25.27;;;5.40;99.90;;;;;;6213373;23;20190;-93
2022/01/19 06:04:23;;;;;;;49.73;24.93;;;5.40;99.90;;;;;;6213233;23;20480;-90
2022/01/19 06:06:52;;;;;;;59.73;26.93;;;5.40;99.90;;;;;;6213425;23;20174;-92
2022/01/19 06:09:33;;;;;;;53.73;25.70;;;5.40;99.90;;;;;;6217121;23;20170;-90
2022/01/19 06:12:05;;;;;;;50.87;25.63;;;5.40;99.90;;;;;;6214305;23;20196;-93
2022/01/19 06:14:32;;;;;;;50.43;26.37;;;5.40;99.90;;;;;;6211245;23;20623;-91
2022/01/19 06:16:59;;;;;;;55.07;25.30;;;5.40;99.90;;;;;;6214640;23;20174;-92
2022/01/19 06:19:27;;;;;;;46.30;26.07;;;5.40;99.90;;;;;;6213634;23;20170;-93
2022/01/19 06:21:54;;;;;;;52.73;26.60;;;5.40;99.90;;;;;;6212231;23;20174;-93
2022/01/19 06:24:21;;;;;;;47.07;25.10;;;5.40;99.90;;;;;;6213177;23;20174;-93
2022/01/19 06:26:48;;;;;;;48.90;26.43;;;5.40;99.90;;;;;;6212705;23;20177;-91
2022/01/19 06:29:16;;;;;;;54.97;25.97;;;5.40;99.90;;;;;;6212807;23;20181;-91
2022/01/19 06:31:43;;;;;;;56.20;28.43;;;5.50;99.90;;;;;;6213531;23;20166;-88
2022/01/19 06:34:10;;;;;;;66.60;28.13;;;5.50;99.90;;;;;;6213519;23;20169;-89
2022/01/19 06:36:39;;;;;;;59.70;28.07;;;5.50;99.90;;;;;;6214265;23;20507;-90
2022/01/19 06:39:07;;;;;;;54.13;26.77;;;5.60;99.90;;;;;;6216916;23;20166;-86
2022/01/19 06:41:34;;;;;;;51.80;27.40;;;5.50;99.90;;;;;;6215964;23;20170;-92
2022/01/19 06:44:01;;;;;;;63.50;29.70;;;5.50;99.90;;;;;;6212072;23;20205;-91
2022/01/19 06:46:29;;;;;;;58.50;27.87;;;5.50;99.90;;;;;;6217975;23;20162;-92
2022/01/19 06:48:55;;;;;;;55.17;28.07;;;5.60;99.90;;;;;;6214149;23;20166;-91
2022/01/19 06:51:23;;;;;;;55.70;25.50;;;5.60;99.90;;;;;;6213529;23;20238;-91
2022/01/19 06:53:50;;;;;;;57.47;29.57;;;5.60;99.90;;;;;;6213643;23;20170;-88
2022/01/19 06:56:17;;;;;;;56.87;30.43;;;5.60;99.90;;;;;;6186357;23;20269;-89
2022/01/19 06:58:43;;;;;;;54.87;27.47;;;5.60;99.90;;;;;;6182755;23;20163;-90
2022/01/19 07:01:11;;;;;;;55.00;28.57;;;5.60;99.90;;;;;;6157033;23;20233;-89
2022/01/19 07:03:39;;;;;;;56.33;28.73;;;5.60;99.90;;;;;;6183027;23;20508;-88
2022/01/19 07:06:07;;;;;;;54.07;29.30;;;5.60;99.90;;;;;;6182355;23;20209;-92
2022/01/19 07:08:34;;;;;;;49.47;29.33;;;5.60;99.90;;;;;;6181676;23;20446;-90
2022/01/19 07:11:01;;;;;;;52.70;28.43;;;5.60;99.90;;;;;;6181670;23;20175;-89
2022/01/19 07:13:28;;;;;;;48.90;28.03;;;5.70;99.90;;;;;;6181765;23;20174;-88
2022/01/19 07:15:55;;;;;;;46.17;28.17;;;5.70;99.90;;;;;;6182688;23;20206;-91
2022/01/19 07:18:21;;;;;;;49.30;30.40;;;5.70;99.90;;;;;;6181567;23;20174;-89
2022/01/19 07:20:50;;;;;;;40.90;26.43;;;5.70;99.90;;;;;;6182302;23;20175;-89
2022/01/19 07:23:17;;;;;;;40.53;24.03;;;5.80;99.90;;;;;;6182641;23;20194;-93
2022/01/19 07:25:43;;;;;;;45.47;26.53;;;5.90;99.90;;;;;;6182369;23;20204;-93
2022/01/19 07:28:11;;;;;;;43.80;28.60;;;5.90;99.90;;;;;;6183403;23;20167;-92
2022/01/19 07:30:38;;;;;;;46.80;28.27;;;5.90;99.90;;;;;;6181945;23;20167;-92
2022/01/19 07:33:05;;;;;;;52.27;28.07;;;5.90;99.90;;;;;;6182573;23;20174;-96
2022/01/19 07:35:32;;;;;;;49.70;29.63;;;5.90;99.90;;;;;;6185665;23;20175;-92
2022/01/19 07:38:00;;;;;;;49.00;28.17;;;5.90;99.90;;;;;;6184343;23;20430;-92
2022/01/19 07:40:27;;;;;;;42.37;27.67;;;6.00;99.90;;;;;;6184834;23;20171;-93
2022/01/19 07:42:54;;;;;;;44.73;27.53;;;6.00;99.90;;;;;;6185051;23;20198;-91
2022/01/19 07:45:21;;;;;;;47.03;27.50;;;6.00;99.90;;;;;;6183612;23;20364;-92
2022/01/19 07:47:48;;;;;;;35.37;19.43;;;6.00;99.90;;;;;;6185165;23;20171;-88
2022/01/19 07:50:15;;;;;;;29.43;15.47;;;6.00;99.90;;;;;;6186154;23;20931;-91
2022/01/19 07:52:43;;;;;;;33.00;16.53;;;6.00;99.90;;;;;;6188152;23;20178;-90
2022/01/19 07:55:11;;;;;;;40.57;15.47;;;6.10;99.90;;;;;;6197536;23;20206;-89
2022/01/19 07:57:40;;;;;;;32.70;13.97;;;6.10;99.90;;;;;;6213706;23;20166;-92
2022/01/19 08:00:08;;;;;;;25.90;13.93;;;6.10;99.90;;;;;;6213342;23;20177;-93
2022/01/19 08:02:35;;;;;;;30.17;14.27;;;6.20;99.90;;;;;;6215082;23;20201;-90
2022/01/19 08:05:02;;;;;;;36.50;14.87;;;6.20;99.90;;;;;;6215615;23;20200;-93
2022/01/19 08:07:29;;;;;;;25.70;13.43;;;6.20;99.90;;;;;;6214290;23;20610;-93
2022/01/19 08:09:56;;;;;;;22.03;13.17;;;6.20;99.90;;;;;;6214876;23;20430;-93
2022/01/19 08:12:24;;;;;;;27.63;14.90;;;6.20;99.90;;;;;;6215730;23;20170;-95
2022/01/19 08:15:09;;;;;;;27.20;14.43;;;6.20;99.90;;;;;;6215306;23;20221;-95
2022/01/19 08:17:36;;;;;;;21.30;12.73;;;6.20;99.90;;;;;;6210206;23;20173;-94
2022/01/19 08:20:04;;;;;;;25.20;13.70;;;6.30;99.90;;;;;;6218306;23;20170;-95
2022/01/19 08:22:31;;;;;;;28.87;15.70;;;6.30;99.90;;;;;;6217800;23;20185;-93
2022/01/19 08:24:58;;;;;;;27.07;13.70;;;6.30;99.90;;;;;;6217682;23;20209;-94
2022/01/19 08:27:26;;;;;;;21.83;12.93;;;6.30;99.90;;;;;;6232796;23;20177;-94
2022/01/19 08:29:53;;;;;;;29.27;13.77;;;6.30;99.90;;;;;;6233859;23;20160;-95
2022/01/19 08:32:19;;;;;;;22.70;13.97;;;6.30;99.90;;;;;;6227291;23;20176;-95
2022/01/19 08:34:47;;;;;;;21.83;13.17;;;6.30;99.90;;;;;;6239100;23;20201;-91
2022/01/19 08:37:15;;;;;;;18.13;11.43;;;6.40;99.90;;;;;;6248437;23;20192;-94
2022/01/19 08:39:43;;;;;;;21.37;13.20;;;6.40;99.90;;;;;;6244420;23;20270;-94
2022/01/19 08:42:11;;;;;;;30.03;14.67;;;6.50;99.90;;;;;;6244311;23;20173;-93
2022/01/19 08:44:40;;;;;;;25.30;14.70;;;6.40;99.90;;;;;;6243766;23;20189;-95
2022/01/19 08:47:08;;;;;;;28.93;13.90;;;6.40;99.90;;;;;;6245781;23;20180;-93
2022/01/19 08:49:35;;;;;;;26.90;13.77;;;6.50;99.90;;;;;;6243938;23;20174;-92
2022/01/19 08:52:02;;;;;;;23.70;14.63;;;6.50;99.90;;;;;;6245336;23;20232;-93
2022/01/19 08:54:29;;;;;;;26.90;14.70;;;6.50;99.90;;;;;;6244697;23;20166;-94
2022/01/19 08:56:55;;;;;;;26.67;13.63;;;6.50;99.90;;;;;;6245816;23;20183;-94
2022/01/19 08:59:22;;;;;;;22.70;12.37;;;6.50;99.90;;;;;;6245955;23;20437;-93
2022/01/19 09:01:50;;;;;;;25.80;13.27;;;6.50;99.90;;;;;;6245896;23;20172;-96
2022/01/19 09:04:19;;;;;;;27.20;15.50;;;6.50;99.90;;;;;;6249702;23;20189;-92
2022/01/19 09:06:46;;;;;;;30.80;15.73;;;6.50;99.90;;;;;;6262489;23;20169;-92
2022/01/19 09:09:13;;;;;;;26.63;16.03;;;6.50;99.90;;;;;;6250184;23;20248;-89
2022/01/19 09:11:43;;;;;;;27.10;17.07;;;6.50;99.90;;;;;;6242204;23;20577;-95
2022/01/19 09:14:14;;;;;;;33.13;18.10;;;6.50;99.90;;;;;;6240969;23;20269;-88
2022/01/19 09:19:12;;;;;;;38.80;19.90;;;6.70;99.90;;;;;;6246711;23;20291;-92
2022/01/19 09:21:44;;;;;;;43.83;21.20;;;6.70;99.90;;;;;;6245193;23;20177;-91
2022/01/19 09:24:11;;;;;;;34.63;20.87;;;6.80;99.90;;;;;;6245028;23;20549;-92
2022/01/19 09:26:39;;;;;;;35.93;21.57;;;6.80;99.90;;;;;;6243969;23;20586;-94
2022/01/19 09:29:06;;;;;;;37.97;19.63;;;6.80;99.90;;;;;;6245197;23;20184;-94
2022/01/19 09:31:38;;;;;;;30.30;17.93;;;6.90;99.90;;;;;;6245788;23;20185;-95
2022/01/19 09:34:10;;;;;;;31.43;18.97;;;6.90;99.90;;;;;;6246199;23;20180;-96
2022/01/19 09:36:45;;;;;;;31.03;15.80;;;6.90;99.90;;;;;;6246737;23;20256;-92
2022/01/19 09:39:17;;;;;;;28.73;13.27;;;6.90;99.90;;;;;;6246833;23;20237;-91
2022/01/19 09:41:45;;;;;;;21.43;11.77;;;7.00;99.90;;;;;;6245091;23;20177;-93
2022/01/19 09:44:12;;;;;;;21.73;11.73;;;7.10;99.90;;;;;;6247011;23;20247;-92
2022/01/19 09:46:56;;;;;;;18.80;11.33;;;7.10;99.90;;;;;;6247848;23;20181;-91
2022/01/19 09:49:29;;;;;;;24.30;12.53;;;7.00;99.90;;;;;;6250702;23;20244;-95
2022/01/19 09:52:00;;;;;;;25.03;12.43;;;7.10;99.90;;;;;;6256116;23;20205;-94
2022/01/19 09:54:30;;;;;;;18.73;10.20;;;7.10;99.90;;;;;;6268103;22;20220;-93
2022/01/19 09:57:02;;;;;;;24.07;10.03;;;7.10;99.90;;;;;;6267172;22;20294;-95
2022/01/19 09:59:31;;;;;;;19.07;8.17;;;7.10;99.90;;;;;;6266114;23;20173;-92
2022/01/19 10:02:03;;;;;;;10.43;4.90;;;7.10;99.90;;;;;;6258355;22;20173;-95
2022/01/19 10:04:41;;;;;;;10.30;4.93;;;7.10;99.90;;;;;;6251743;23;20196;-92
2022/01/19 10:07:13;;;;;;;13.67;5.20;;;7.10;99.90;;;;;;6247630;23;20192;-94
2022/01/19 10:09:54;;;;;;;15.30;6.50;;;7.10;99.90;;;;;;6248746;23;20243;-93
2022/01/19 10:18:14;;;;;;;10.30;3.60;;;7.20;99.90;;;;;;6211675;23;20283;-91
2022/01/19 10:20:44;;;;;;;12.40;3.57;;;7.20;99.90;;;;;;6212756;23;20177;-87
2022/01/19 10:23:33;;;;;;;9.93;3.87;;;7.20;99.90;;;;;;6213384;23;20170;-89
2022/01/19 10:26:01;;;;;;;12.03;4.13;;;7.30;99.90;;;;;;6212233;23;20461;-89
2022/01/19 10:28:28;;;;;;;9.57;3.77;;;7.30;99.90;;;;;;6214188;23;20557;-88
2022/01/19 10:30:55;;;;;;;11.67;4.17;;;7.20;99.90;;;;;;6212480;23;20170;-87
2022/01/19 10:33:22;;;;;;;22.90;10.67;;;7.30;99.90;;;;;;6211969;23;20173;-86
2022/01/19 10:35:50;;;;;;;22.40;11.37;;;7.30;99.90;;;;;;6212185;23;20174;-88
2022/01/19 10:38:20;;;;;;;22.00;9.93;;;7.30;99.90;;;;;;6211998;23;20943;-87
2022/01/19 10:41:06;;;;;;;15.67;6.17;;;7.30;99.90;;;;;;6208424;23;20178;-86
2022/01/19 10:43:36;;;;;;;19.97;7.60;;;7.40;99.90;;;;;;6211733;23;20212;-87
2022/01/19 10:46:25;;;;;;;20.50;9.50;;;7.40;99.90;;;;;;6211331;23;20178;-86
2022/01/19 10:48:59;;;;;;;17.93;6.50;;;7.50;99.90;;;;;;6210114;23;20232;-86
2022/01/19 10:51:31;;;;;;;12.07;5.47;;;7.60;99.90;;;;;;6211135;23;20177;-88
2022/01/19 10:54:10;;;;;;;21.07;8.77;;;7.70;99.90;;;;;;6212208;23;20181;-87
2022/01/19 10:56:38;;;;;;;17.03;8.63;;;7.80;99.90;;;;;;6211538;23;20723;-88
2022/01/19 10:59:07;;;;;;;24.97;11.17;;;7.80;99.90;;;;;;6211339;23;20523;-85
2022/01/19 11:01:37;;;;;;;15.97;8.30;;;7.90;99.90;;;;;;6210398;23;20165;-85
2022/01/19 11:04:22;;;;;;;13.33;6.53;;;7.90;99.90;;;;;;6211588;23;20277;-87
2022/01/19 11:06:53;;;;;;;11.83;3.87;;;7.90;99.90;;;;;;6212070;23;20170;-86
2022/01/19 11:09:24;;;;;;;12.17;4.27;;;7.90;99.90;;;;;;6213544;23;20167;-87
2022/01/19 11:11:52;;;;;;;8.53;3.73;;;8.00;99.90;;;;;;6213255;23;20170;-88
2022/01/19 11:14:18;;;;;;;15.93;5.67;;;8.20;99.90;;;;;;6213521;23;20266;-89
2022/01/19 11:16:47;;;;;;;18.23;7.53;;;8.30;99.90;;;;;;6213439;23;20171;-86
2022/01/19 11:19:15;;;;;;;20.70;8.00;;;8.40;99.90;;;;;;6214024;23;20170;-85
2022/01/19 11:21:56;;;;;;;19.23;8.07;;;8.40;99.90;;;;;;6212173;23;20205;-83
2022/01/19 11:24:34;;;;;;;26.57;9.37;;;8.40;99.90;;;;;;6209025;23;20190;-85
2022/01/19 11:27:02;;;;;;;21.37;6.90;;;8.40;99.90;;;;;;6209742;23;20173;-85
2022/01/19 11:29:30;;;;;;;12.73;4.53;;;8.30;99.90;;;;;;6211454;23;20178;-84
2022/01/19 11:31:58;;;;;;;10.40;3.47;;;8.30;99.90;;;;;;6211820;23;20228;-86
2022/01/19 11:34:46;;;;;;;16.33;4.33;;;8.30;99.90;;;;;;6183466;23;20170;-84
2022/01/19 11:37:14;;;;;;;8.13;3.40;;;8.20;99.90;;;;;;6208341;23;20231;-86
2022/01/19 11:40:02;;;;;;;11.50;3.93;;;8.20;99.90;;;;;;6209652;23;20197;-87
2022/01/19 11:42:28;;;;;;;15.40;4.67;;;8.20;99.90;;;;;;6212854;23;20166;-86
2022/01/19 11:44:55;;;;;;;15.57;6.67;;;8.20;99.90;;;;;;6213193;23;20194;-86
2022/01/19 11:47:25;;;;;;;21.13;8.10;;;8.20;99.90;;;;;;6212930;23;20177;-86
2022/01/19 11:49:56;;;;;;;20.70;10.27;;;8.10;99.90;;;;;;6212906;23;20778;-86
2022/01/19 11:52:28;;;;;;;16.73;5.87;;;8.00;99.90;;;;;;6212826;23;20177;-86
2022/01/19 11:55:14;;;;;;;17.67;6.00;;;8.00;99.90;;;;;;6213072;23;20162;-84
2022/01/19 11:57:42;;;;;;;17.77;5.83;;;8.00;99.90;;;;;;6212400;23;20294;-86
2022/01/19 12:00:21;;;;;;;13.57;4.33;;;7.90;99.90;;;;;;6212783;23;20169;-87
2022/01/19 12:02:53;;;;;;;17.67;5.73;;;7.90;99.90;;;;;;6214147;23;20182;-86
2022/01/19 12:05:36;;;;;;;16.17;6.13;;;7.90;99.90;;;;;;6212648;23;20193;-86
2022/01/19 12:08:21;;;;;;;30.57;10.83;;;7.90;99.90;;;;;;6213770;23;20173;-89
2022/01/19 12:10:50;;;;;;;22.60;9.40;;;7.90;99.90;;;;;;6214847;23;20180;-88
2022/01/19 12:13:56;;;;;;;35.60;16.40;;;7.90;99.90;;;;;;6207385;23;20191;-86
2022/01/19 12:16:33;;;;;;;24.70;13.37;;;7.90;99.90;;;;;;6184551;23;20198;-89
2022/01/19 12:19:13;;;;;;;22.93;9.10;;;8.00;99.90;;;;;;6184155;23;20170;-89
2022/01/19 12:21:44;;;;;;;18.63;7.87;;;8.00;99.90;;;;;;6191688;23;20479;-88
2022/01/19 12:24:22;;;;;;;19.93;8.33;;;8.10;99.90;;;;;;6191877;23;20202;-89
2022/01/19 12:26:56;;;;;;;23.33;8.10;;;8.10;99.90;;;;;;6183207;23;20170;-88
2022/01/19 12:29:46;;;;;;;20.57;6.87;;;8.20;99.90;;;;;;6183239;23;20174;-90
2022/01/19 12:32:34;;;;;;;25.87;8.30;;;8.20;99.90;;;;;;6183065;23;20167;-86
2022/01/19 12:35:13;;;;;;;29.40;10.90;;;8.30;99.90;;;;;;6181571;23;20197;-87
2022/01/19 12:37:42;;;;;;;26.33;8.70;;;8.20;99.90;;;;;;6182346;23;20167;-86
2022/01/19 12:40:44;;;;;;;24.57;9.03;;;8.20;99.90;;;;;;6183026;23;20186;-84
2022/01/19 12:43:28;;;;;;;19.13;7.20;;;8.20;99.90;;;;;;6170978;23;20178;-88
2022/01/19 12:45:55;;;;;;;22.03;7.20;;;8.20;99.90;;;;;;6182786;23;20186;-87
2022/01/19 12:48:41;;;;;;;23.30;7.50;;;8.20;99.90;;;;;;6181854;23;20167;-84
2022/01/19 12:51:36;;;;;;;26.90;8.43;;;8.20;99.90;;;;;;6179611;23;20171;-87
2022/01/19 12:54:03;;;;;;;20.37;8.20;;;8.20;99.90;;;;;;6178831;23;20171;-85
2022/01/19 12:56:30;;;;;;;20.67;8.93;;;8.20;99.90;;;;;;6175027;23;20181;-85
2022/01/19 12:59:03;;;;;;;31.03;8.90;;;8.20;99.90;;;;;;6181214;23;20174;-84
2022/01/19 13:01:30;;;;;;;31.50;11.27;;;8.20;99.90;;;;;;6179380;23;20206;-84
2022/01/19 13:03:57;;;;;;;23.67;8.90;;;8.10;99.90;;;;;;6180612;23;20175;-84
2022/01/19 13:06:27;;;;;;;25.93;9.77;;;8.10;99.90;;;;;;6180450;23;20182;-81
2022/01/19 13:09:00;;;;;;;19.37;7.33;;;8.10;99.90;;;;;;6180830;23;20170;-82
2022/01/19 13:11:36;;;;;;;34.07;11.03;;;8.10;99.90;;;;;;6180519;23;20170;-84
2022/01/19 13:14:06;;;;;;;27.03;8.83;;;8.20;99.90;;;;;;6180852;23;20210;-84
2022/01/19 13:16:42;;;;;;;34.03;10.57;;;8.20;99.90;;;;;;6180378;23;20167;-84
2022/01/19 13:19:14;;;;;;;29.87;10.60;;;8.20;99.90;;;;;;6181005;23;20166;-85
2022/01/19 13:21:43;;;;;;;29.20;8.87;;;8.10;99.90;;;;;;6181407;23;20197;-85
2022/01/19 13:24:15;;;;;;;26.00;8.60;;;8.10;99.90;;;;;;6181699;23;20580;-83
2022/01/19 13:26:45;;;;;;;26.77;7.03;;;8.10;99.90;;;;;;6181816;23;20179;-85
2022/01/19 13:29:26;;;;;;;27.97;8.80;;;8.10;99.90;;;;;;6180502;23;20175;-86
2022/01/19 13:32:02;;;;;;;31.43;9.60;;;8.10;99.90;;;;;;6182630;23;20170;-85
2022/01/19 13:34:30;;;;;;;22.40;8.47;;;8.10;99.90;;;;;;6181741;23;20167;-87
2022/01/19 13:37:00;;;;;;;23.40;8.87;;;8.20;99.90;;;;;;6181844;23;20241;-85
2022/01/19 13:39:30;;;;;;;25.17;9.33;;;8.20;99.90;;;;;;6182066;23;20866;-86
2022/01/19 13:41:58;;;;;;;26.07;8.67;;;8.20;99.90;;;;;;6182711;23;20177;-88
2022/01/19 13:44:33;;;;;;;26.57;8.57;;;8.20;99.90;;;;;;6181326;23;20641;-88
2022/01/19 13:47:11;;;;;;;25.60;7.53;;;8.20;99.90;;;;;;6182496;23;20173;-85
2022/01/19 13:49:40;;;;;;;20.80;7.90;;;8.20;99.90;;;;;;6182107;23;20166;-87
2022/01/19 13:52:07;;;;;;;25.37;8.63;;;8.20;99.90;;;;;;6181805;23;20175;-86
2022/01/19 13:54:38;;;;;;;21.40;7.60;;;8.30;99.90;;;;;;6182117;23;20178;-87
2022/01/19 13:57:05;;;;;;;25.90;9.80;;;8.30;99.90;;;;;;6182683;23;20177;-85
2022/01/19 13:59:34;;;;;;;26.70;9.17;;;8.20;99.90;;;;;;6181502;23;20445;-86
2022/01/19 14:02:02;;;;;;;33.60;9.07;;;8.30;99.90;;;;;;6180300;23;20179;-84
2022/01/19 14:04:31;;;;;;;23.40;7.80;;;8.20;99.90;;;;;;6180051;23;20202;-82